sensor_id;sensor_type;location;lat;lon;timestamp;pressure;altitude;pressure_sealevel;temperature;humidity
64404;BME280;50726;54.912;-8.392;2022-11-20T00:00:21;99516.09;;;27.74;58.76
64404;BME280;50726;54.912;-8.392;2022-11-20T00:02:46;99510.28;;;26.21;57.74
64404;BME280;50726;54.912;-8.392;2022-11-20T00:05:13;99506.84;;;28.17;54.69
64404;BME280;50726;54.912;-8.392;2022-11-20T00:07:39;99502.06;;;28.74;51.48
64404;BME280;50726;54.912;-8.392;2022-11-20T00:10:06;99495.13;;;25.52;58.61
64404;BME280;50726;54.912;-8.392;2022-11-20T00:12:33;99482.91;;;27.67;55.27
64404;BME280;50726;54.912;-8.392;2022-11-20T00:14:58;99482.88;;;28.77;51.08
64404;BME280;50726;54.912;-8.392;2022-11-20T00:17:26;99495.44;;;28.85;51.93
64404;BME280;50726;54.912;-8.392;2022-11-20T00:19:53;99486.34;;;27.84;50.60
64404;BME280;50726;54.912;-8.392;2022-11-20T00:22:23;99495.28;;;26.70;55.62
64404;BME280;50726;54.912;-8.392;2022-11-20T00:24:50;99492.56;;;30.07;50.17
64404;BME280;50726;54.912;-8.392;2022-11-20T00:27:16;99486.28;;;29.99;47.66
64404;BME280;50726;54.912;-8.392;2022-11-20T00:29:42;99535.34;;;27.29;49.38
64404;BME280;50726;54.912;-8.392;2022-11-20T00:32:10;99582.13;;;23.05;69.05
64404;BME280;50726;54.912;-8.392;2022-11-20T00:34:35;99528.06;;;23.70;67.29
64404;BME280;50726;54.912;-8.392;2022-11-20T00:37:03;99518.97;;;25.63;59.37
64404;BME280;50726;54.912;-8.392;2022-11-20T00:39:29;99536.59;;;25.47;56.46
64404;BME280;50726;54.912;-8.392;2022-11-20T00:41:54;99517.91;;;26.42;53.57
64404;BME280;50726;54.912;-8.392;2022-11-20T00:44:20;99521.75;;;23.04;62.14
64404;BME280;50726;54.912;-8.392;2022-11-20T00:46:47;99509.81;;;27.42;53.92
64404;BME280;50726;54.912;-8.392;2022-11-20T00:49:13;99511.06;;;27.14;54.04
64404;BME280;50726;54.912;-8.392;2022-11-20T00:51:40;99510.19;;;26.47;54.23
64404;BME280;50726;54.912;-8.392;2022-11-20T00:54:06;99498.13;;;25.48;56.12
64404;BME280;50726;54.912;-8.392;2022-11-20T00:56:31;99498.91;;;26.19;55.23
64404;BME280;50726;54.912;-8.392;2022-11-20T00:59:00;99496.03;;;28.48;51.29
64404;BME280;50726;54.912;-8.392;2022-11-20T01:01:27;99506.06;;;27.99;51.48
64404;BME280;50726;54.912;-8.392;2022-11-20T01:03:57;99503.72;;;27.65;50.42
64404;BME280;50726;54.912;-8.392;2022-11-20T01:08:55;99520.22;;;25.51;55.74
64404;BME280;50726;54.912;-8.392;2022-11-20T01:11:24;99510.38;;;24.44;63.65
64404;BME280;50726;54.912;-8.392;2022-11-20T01:13:51;99498.34;;;23.83;65.46
64404;BME280;50726;54.912;-8.392;2022-11-20T01:16:35;99495.19;;;23.70;66.19
64404;BME280;50726;54.912;-8.392;2022-11-20T01:19:05;99492.19;;;23.83;65.74
64404;BME280;50726;54.912;-8.392;2022-11-20T01:21:38;99494.00;;;22.87;64.95
64404;BME280;50726;54.912;-8.392;2022-11-20T01:24:08;99492.31;;;23.53;64.92
64404;BME280;50726;54.912;-8.392;2022-11-20T01:26:37;99489.41;;;23.74;63.08
64404;BME280;50726;54.912;-8.392;2022-11-20T01:29:08;99470.44;;;22.92;63.40
64404;BME280;50726;54.912;-8.392;2022-11-20T01:31:36;99492.44;;;23.52;63.79
64404;BME280;50726;54.912;-8.392;2022-11-20T01:34:11;99483.44;;;23.15;65.90
64404;BME280;50726;54.912;-8.392;2022-11-20T01:36:39;99474.53;;;23.44;66.50
64404;BME280;50726;54.912;-8.392;2022-11-20T01:39:09;99475.47;;;25.34;61.48
64404;BME280;50726;54.912;-8.392;2022-11-20T01:41:36;99480.84;;;23.99;63.23
64404;BME280;50726;54.912;-8.392;2022-11-20T01:44:22;99487.84;;;24.64;60.81
64404;BME280;50726;54.912;-8.392;2022-11-20T01:46:59;99498.44;;;24.20;58.26
64404;BME280;50726;54.912;-8.392;2022-11-20T01:49:39;99472.09;;;23.79;56.32
64404;BME280;50726;54.912;-8.392;2022-11-20T01:52:12;99504.13;;;23.79;58.92
64404;BME280;50726;54.912;-8.392;2022-11-20T01:55:01;99500.84;;;23.67;57.48
64404;BME280;50726;54.912;-8.392;2022-11-20T01:57:31;99481.09;;;23.78;60.33
64404;BME280;50726;54.912;-8.392;2022-11-20T02:00:10;99488.00;;;24.08;60.14
64404;BME280;50726;54.912;-8.392;2022-11-20T02:02:39;99473.41;;;23.46;57.84
64404;BME280;50726;54.912;-8.392;2022-11-20T02:07:54;99473.47;;;23.55;57.87
64404;BME280;50726;54.912;-8.392;2022-11-20T02:10:21;99479.84;;;23.72;57.19
64404;BME280;50726;54.912;-8.392;2022-11-20T02:12:48;99461.69;;;24.04;58.47
64404;BME280;50726;54.912;-8.392;2022-11-20T02:15:33;99493.03;;;22.78;66.88
64404;BME280;50726;54.912;-8.392;2022-11-20T02:18:00;99495.97;;;22.75;68.79
64404;BME280;50726;54.912;-8.392;2022-11-20T02:20:26;99491.88;;;21.39;72.95
64404;BME280;50726;54.912;-8.392;2022-11-20T02:23:29;99490.03;;;22.22;73.59
64404;BME280;50726;54.912;-8.392;2022-11-20T02:25:58;99484.41;;;22.05;73.08
64404;BME280;50726;54.912;-8.392;2022-11-20T02:28:28;99492.81;;;21.07;75.56
64404;BME280;50726;54.912;-8.392;2022-11-20T02:30:54;99481.66;;;21.44;73.09
64404;BME280;50726;54.912;-8.392;2022-11-20T02:33:19;99472.25;;;22.22;67.06
64404;BME280;50726;54.912;-8.392;2022-11-20T02:35:46;99462.56;;;23.76;63.54
64404;BME280;50726;54.912;-8.392;2022-11-20T02:38:14;99469.22;;;24.36;60.55
64404;BME280;50726;54.912;-8.392;2022-11-20T02:40:44;99464.94;;;24.07;60.09
64404;BME280;50726;54.912;-8.392;2022-11-20T02:43:12;99459.53;;;24.17;60.92
64404;BME280;50726;54.912;-8.392;2022-11-20T02:45:38;99462.94;;;23.05;62.03
64404;BME280;50726;54.912;-8.392;2022-11-20T02:48:06;99478.22;;;23.13;61.67
64404;BME280;50726;54.912;-8.392;2022-11-20T02:50:37;99466.31;;;24.66;60.21
64404;BME280;50726;54.912;-8.392;2022-11-20T02:53:04;99446.44;;;23.40;61.81
64404;BME280;50726;54.912;-8.392;2022-11-20T02:55:30;99460.78;;;23.19;62.39
64404;BME280;50726;54.912;-8.392;2022-11-20T02:57:57;99464.41;;;23.48;61.57
64404;BME280;50726;54.912;-8.392;2022-11-20T03:00:23;99467.44;;;24.09;61.53
64404;BME280;50726;54.912;-8.392;2022-11-20T03:02:49;99460.59;;;24.43;59.71
64404;BME280;50726;54.912;-8.392;2022-11-20T03:05:17;99456.63;;;23.54;61.88
64404;BME280;50726;54.912;-8.392;2022-11-20T03:07:43;99476.69;;;23.58;62.80
64404;BME280;50726;54.912;-8.392;2022-11-20T03:10:09;99487.09;;;23.52;62.31
64404;BME280;50726;54.912;-8.392;2022-11-20T03:12:36;99490.22;;;22.89;64.74
64404;BME280;50726;54.912;-8.392;2022-11-20T03:15:02;99450.75;;;21.94;62.93
64404;BME280;50726;54.912;-8.392;2022-11-20T03:17:27;99446.28;;;23.03;57.78
64404;BME280;50726;54.912;-8.392;2022-11-20T03:19:54;99455.13;;;23.42;56.41
64404;BME280;50726;54.912;-8.392;2022-11-20T03:22:22;99449.72;;;23.62;57.01
64404;BME280;50726;54.912;-8.392;2022-11-20T03:24:50;99477.75;;;23.48;56.42
64404;BME280;50726;54.912;-8.392;2022-11-20T03:27:17;99479.69;;;22.29;59.44
64404;BME280;50726;54.912;-8.392;2022-11-20T03:29:43;99490.84;;;23.21;59.60
64404;BME280;50726;54.912;-8.392;2022-11-20T03:32:08;99478.00;;;22.27;65.83
64404;BME280;50726;54.912;-8.392;2022-11-20T03:34:34;99498.78;;;22.53;65.54
64404;BME280;50726;54.912;-8.392;2022-11-20T03:37:00;99505.66;;;23.53;63.03
64404;BME280;50726;54.912;-8.392;2022-11-20T03:39:25;99520.59;;;21.77;67.71
64404;BME280;50726;54.912;-8.392;2022-11-20T03:41:56;99510.84;;;22.58;66.52
64404;BME280;50726;54.912;-8.392;2022-11-20T03:44:23;99484.84;;;23.57;63.09
64404;BME280;50726;54.912;-8.392;2022-11-20T03:46:49;99473.22;;;22.02;63.15
64404;BME280;50726;54.912;-8.392;2022-11-20T03:49:15;99476.63;;;23.30;60.07
64404;BME280;50726;54.912;-8.392;2022-11-20T03:51:40;99456.13;;;22.14;63.11
64404;BME280;50726;54.912;-8.392;2022-11-20T03:54:07;99454.94;;;23.81;61.63
64404;BME280;50726;54.912;-8.392;2022-11-20T03:56:37;99457.00;;;23.87;61.01
64404;BME280;50726;54.912;-8.392;2022-11-20T03:59:14;99457.78;;;25.42;56.42
64404;BME280;50726;54.912;-8.392;2022-11-20T04:01:40;99458.00;;;24.51;58.76
64404;BME280;50726;54.912;-8.392;2022-11-20T04:04:11;99458.75;;;25.06;55.94
64404;BME280;50726;54.912;-8.392;2022-11-20T04:06:39;99452.56;;;26.51;54.15
64404;BME280;50726;54.912;-8.392;2022-11-20T04:09:06;99447.09;;;25.50;53.24
64404;BME280;50726;54.912;-8.392;2022-11-20T04:11:35;99452.88;;;26.32;51.02
64404;BME280;50726;54.912;-8.392;2022-11-20T04:14:04;99448.31;;;24.94;53.40
64404;BME280;50726;54.912;-8.392;2022-11-20T04:16:33;99443.59;;;24.44;53.91
64404;BME280;50726;54.912;-8.392;2022-11-20T04:19:02;99451.56;;;25.68;53.29
64404;BME280;50726;54.912;-8.392;2022-11-20T04:21:31;99416.66;;;23.44;56.14
64404;BME280;50726;54.912;-8.392;2022-11-20T04:23:56;99440.25;;;24.86;53.76
64404;BME280;50726;54.912;-8.392;2022-11-20T04:26:30;99438.47;;;25.30;54.82
64404;BME280;50726;54.912;-8.392;2022-11-20T04:28:57;99425.00;;;25.91;53.56
64404;BME280;50726;54.912;-8.392;2022-11-20T04:31:26;99426.91;;;24.94;56.45
64404;BME280;50726;54.912;-8.392;2022-11-20T04:33:52;99420.53;;;25.22;54.67
64404;BME280;50726;54.912;-8.392;2022-11-20T04:36:21;99413.66;;;25.97;52.52
64404;BME280;50726;54.912;-8.392;2022-11-20T04:38:51;99424.34;;;25.97;52.65
64404;BME280;50726;54.912;-8.392;2022-11-20T04:41:22;99426.31;;;25.79;54.04
64404;BME280;50726;54.912;-8.392;2022-11-20T04:43:49;99413.69;;;26.64;52.42
64404;BME280;50726;54.912;-8.392;2022-11-20T04:46:17;99421.03;;;26.62;52.37
64404;BME280;50726;54.912;-8.392;2022-11-20T04:48:49;99422.41;;;27.39;50.65
64404;BME280;50726;54.912;-8.392;2022-11-20T04:51:14;99430.59;;;26.98;51.25
64404;BME280;50726;54.912;-8.392;2022-11-20T04:53:40;99423.81;;;25.85;53.03
64404;BME280;50726;54.912;-8.392;2022-11-20T04:56:08;99456.63;;;25.44;51.82
64404;BME280;50726;54.912;-8.392;2022-11-20T04:58:36;99408.19;;;25.56;50.50
64404;BME280;50726;54.912;-8.392;2022-11-20T05:01:04;99442.78;;;24.70;53.31
64404;BME280;50726;54.912;-8.392;2022-11-20T05:03:31;99428.06;;;27.84;46.92
64404;BME280;50726;54.912;-8.392;2022-11-20T05:05:59;99428.75;;;26.98;45.99
64404;BME280;50726;54.912;-8.392;2022-11-20T05:08:26;99421.75;;;25.28;49.09
64404;BME280;50726;54.912;-8.392;2022-11-20T05:10:52;99421.53;;;24.23;50.10
64404;BME280;50726;54.912;-8.392;2022-11-20T05:13:18;99413.09;;;25.42;48.51
64404;BME280;50726;54.912;-8.392;2022-11-20T05:15:44;99432.47;;;24.57;49.61
64404;BME280;50726;54.912;-8.392;2022-11-20T05:18:10;99404.78;;;23.57;49.26
64404;BME280;50726;54.912;-8.392;2022-11-20T05:20:35;99439.28;;;23.68;51.18
64404;BME280;50726;54.912;-8.392;2022-11-20T05:23:02;99455.53;;;22.99;60.88
64404;BME280;50726;54.912;-8.392;2022-11-20T05:25:29;99471.09;;;21.64;68.97
64404;BME280;50726;54.912;-8.392;2022-11-20T05:27:55;99483.03;;;20.21;70.39
64404;BME280;50726;54.912;-8.392;2022-11-20T05:30:20;99430.50;;;19.69;75.26
64404;BME280;50726;54.912;-8.392;2022-11-20T05:32:50;99535.38;;;20.30;91.33
64404;BME280;50726;54.912;-8.392;2022-11-20T05:35:17;99473.78;;;20.48;100.00
64404;BME280;50726;54.912;-8.392;2022-11-20T05:37:42;99502.34;;;20.77;88.17
64404;BME280;50726;54.912;-8.392;2022-11-20T05:40:11;99449.56;;;21.36;87.92
64404;BME280;50726;54.912;-8.392;2022-11-20T05:42:36;99477.50;;;21.52;84.01
64404;BME280;50726;54.912;-8.392;2022-11-20T05:45:04;99452.22;;;22.87;80.59
64404;BME280;50726;54.912;-8.392;2022-11-20T05:47:33;99458.84;;;23.21;78.20
64404;BME280;50726;54.912;-8.392;2022-11-20T05:50:00;99431.44;;;22.91;74.16
64404;BME280;50726;54.912;-8.392;2022-11-20T05:52:30;99441.84;;;22.74;73.57
64404;BME280;50726;54.912;-8.392;2022-11-20T05:55:05;99454.97;;;22.96;69.43
64404;BME280;50726;54.912;-8.392;2022-11-20T05:57:32;99456.00;;;23.42;68.80
64404;BME280;50726;54.912;-8.392;2022-11-20T05:59:57;99475.41;;;21.86;69.56
64404;BME280;50726;54.912;-8.392;2022-11-20T06:02:23;99470.09;;;23.15;67.29
64404;BME280;50726;54.912;-8.392;2022-11-20T06:04:50;99448.94;;;23.97;65.19
64404;BME280;50726;54.912;-8.392;2022-11-20T06:07:16;99448.91;;;24.07;61.50
64404;BME280;50726;54.912;-8.392;2022-11-20T06:09:44;99470.75;;;24.21;61.28
64404;BME280;50726;54.912;-8.392;2022-11-20T06:12:10;99475.28;;;23.06;62.15
64404;BME280;50726;54.912;-8.392;2022-11-20T06:14:36;99449.25;;;22.41;66.53
64404;BME280;50726;54.912;-8.392;2022-11-20T06:17:02;99464.25;;;23.77;61.25
64404;BME280;50726;54.912;-8.392;2022-11-20T06:19:27;99465.63;;;23.05;62.06
64404;BME280;50726;54.912;-8.392;2022-11-20T06:21:53;99456.69;;;22.87;63.50
64404;BME280;50726;54.912;-8.392;2022-11-20T06:24:21;99425.69;;;22.86;64.22
64404;BME280;50726;54.912;-8.392;2022-11-20T06:26:46;99451.88;;;23.76;63.21
64404;BME280;50726;54.912;-8.392;2022-11-20T06:29:12;99458.31;;;23.55;61.14
64404;BME280;50726;54.912;-8.392;2022-11-20T06:31:38;99436.22;;;23.25;61.37
64404;BME280;50726;54.912;-8.392;2022-11-20T06:34:04;99457.00;;;24.52;59.12
64404;BME280;50726;54.912;-8.392;2022-11-20T06:36:32;99454.13;;;24.27;60.65
64404;BME280;50726;54.912;-8.392;2022-11-20T06:38:59;99453.41;;;25.06;59.11
64404;BME280;50726;54.912;-8.392;2022-11-20T06:41:27;99441.00;;;23.87;60.73
64404;BME280;50726;54.912;-8.392;2022-11-20T06:43:53;99445.56;;;23.77;60.92
64404;BME280;50726;54.912;-8.392;2022-11-20T06:46:19;99448.09;;;24.88;57.67
64404;BME280;50726;54.912;-8.392;2022-11-20T06:48:46;99447.00;;;24.99;56.73
64404;BME280;50726;54.912;-8.392;2022-11-20T06:51:14;99430.13;;;24.35;58.22
64404;BME280;50726;54.912;-8.392;2022-11-20T06:53:42;99433.31;;;23.56;61.55
64404;BME280;50726;54.912;-8.392;2022-11-20T06:56:08;99429.41;;;23.51;62.12
64404;BME280;50726;54.912;-8.392;2022-11-20T06:58:35;99440.28;;;24.50;63.92
64404;BME280;50726;54.912;-8.392;2022-11-20T07:01:09;99425.56;;;24.46;62.64
64404;BME280;50726;54.912;-8.392;2022-11-20T07:03:35;99419.72;;;24.69;63.02
64404;BME280;50726;54.912;-8.392;2022-11-20T07:06:03;99420.56;;;25.57;61.06
64404;BME280;50726;54.912;-8.392;2022-11-20T07:08:31;99403.34;;;24.09;63.39
64404;BME280;50726;54.912;-8.392;2022-11-20T07:11:00;99421.16;;;23.90;63.53
64404;BME280;50726;54.912;-8.392;2022-11-20T07:13:27;99421.69;;;24.22;61.42
64404;BME280;50726;54.912;-8.392;2022-11-20T07:16:00;99404.47;;;24.06;65.77
64404;BME280;50726;54.912;-8.392;2022-11-20T07:18:27;99417.16;;;24.40;59.79
64404;BME280;50726;54.912;-8.392;2022-11-20T07:20:54;99476.06;;;22.69;64.97
64404;BME280;50726;54.912;-8.392;2022-11-20T07:23:20;99424.56;;;22.49;66.53
64404;BME280;50726;54.912;-8.392;2022-11-20T07:25:45;99443.81;;;22.72;64.73
64404;BME280;50726;54.912;-8.392;2022-11-20T07:28:14;99418.72;;;22.55;66.88
64404;BME280;50726;54.912;-8.392;2022-11-20T07:30:39;99420.09;;;22.49;62.01
64404;BME280;50726;54.912;-8.392;2022-11-20T07:33:05;99404.28;;;23.90;59.42
64404;BME280;50726;54.912;-8.392;2022-11-20T07:35:32;99398.66;;;22.61;64.43
64404;BME280;50726;54.912;-8.392;2022-11-20T07:37:58;99389.22;;;23.52;59.20
64404;BME280;50726;54.912;-8.392;2022-11-20T07:40:24;99405.69;;;23.10;65.99
64404;BME280;50726;54.912;-8.392;2022-11-20T07:42:50;99388.00;;;22.21;70.67
64404;BME280;50726;54.912;-8.392;2022-11-20T07:45:17;99404.91;;;22.89;67.93
64404;BME280;50726;54.912;-8.392;2022-11-20T07:47:42;99406.94;;;23.05;62.47
64404;BME280;50726;54.912;-8.392;2022-11-20T07:50:08;99406.47;;;22.82;62.68
64404;BME280;50726;54.912;-8.392;2022-11-20T07:52:34;99404.19;;;22.97;59.10
64404;BME280;50726;54.912;-8.392;2022-11-20T07:55:00;99414.44;;;23.68;57.43
64404;BME280;50726;54.912;-8.392;2022-11-20T07:57:25;99408.22;;;24.13;53.52
64404;BME280;50726;54.912;-8.392;2022-11-20T07:59:51;99409.09;;;24.32;54.25
64404;BME280;50726;54.912;-8.392;2022-11-20T08:02:16;99427.25;;;24.10;51.36
64404;BME280;50726;54.912;-8.392;2022-11-20T08:04:42;99408.28;;;24.58;51.79
64404;BME280;50726;54.912;-8.392;2022-11-20T08:07:09;99412.56;;;25.73;50.00
64404;BME280;50726;54.912;-8.392;2022-11-20T08:09:34;99417.88;;;25.22;50.49
64404;BME280;50726;54.912;-8.392;2022-11-20T08:12:00;99412.78;;;25.11;51.82
64404;BME280;50726;54.912;-8.392;2022-11-20T08:14:44;99426.16;;;24.39;52.94
64404;BME280;50726;54.912;-8.392;2022-11-20T08:17:10;99425.94;;;24.33;53.76
64404;BME280;50726;54.912;-8.392;2022-11-20T08:19:35;99413.41;;;24.78;52.99
64404;BME280;50726;54.912;-8.392;2022-11-20T08:22:01;99413.34;;;24.25;55.02
64404;BME280;50726;54.912;-8.392;2022-11-20T08:24:27;99410.81;;;24.05;56.83
64404;BME280;50726;54.912;-8.392;2022-11-20T08:26:52;99422.09;;;25.59;54.20
64404;BME280;50726;54.912;-8.392;2022-11-20T08:29:18;99421.13;;;23.72;55.45
64404;BME280;50726;54.912;-8.392;2022-11-20T08:31:44;99405.88;;;24.10;56.44
64404;BME280;50726;54.912;-8.392;2022-11-20T08:34:10;99414.97;;;23.90;57.12
64404;BME280;50726;54.912;-8.392;2022-11-20T08:36:36;99425.66;;;24.36;54.46
64404;BME280;50726;54.912;-8.392;2022-11-20T08:39:02;99415.84;;;24.45;54.69
64404;BME280;50726;54.912;-8.392;2022-11-20T08:41:29;99408.91;;;24.52;54.75
64404;BME280;50726;54.912;-8.392;2022-11-20T08:44:02;99405.16;;;26.27;50.94
64404;BME280;50726;54.912;-8.392;2022-11-20T08:46:34;99405.50;;;25.56;51.36
64404;BME280;50726;54.912;-8.392;2022-11-20T08:49:03;99402.91;;;25.38;54.32
64404;BME280;50726;54.912;-8.392;2022-11-20T08:51:29;99409.38;;;25.62;53.09
64404;BME280;50726;54.912;-8.392;2022-11-20T08:53:55;99417.63;;;27.58;47.65
64404;BME280;50726;54.912;-8.392;2022-11-20T08:56:21;99413.22;;;28.82;47.03
64404;BME280;50726;54.912;-8.392;2022-11-20T08:58:47;99431.47;;;26.57;49.91
64404;BME280;50726;54.912;-8.392;2022-11-20T09:01:12;99420.66;;;27.55;47.43
64404;BME280;50726;54.912;-8.392;2022-11-20T09:03:38;99424.94;;;28.89;45.25
64404;BME280;50726;54.912;-8.392;2022-11-20T09:06:06;99418.22;;;30.91;44.22
64404;BME280;50726;54.912;-8.392;2022-11-20T09:08:33;99423.19;;;30.88;42.03
64404;BME280;50726;54.912;-8.392;2022-11-20T09:10:59;99407.66;;;30.68;41.48
64404;BME280;50726;54.912;-8.392;2022-11-20T09:13:26;99409.03;;;30.86;41.46
64404;BME280;50726;54.912;-8.392;2022-11-20T09:15:58;99409.75;;;27.88;45.94
64404;BME280;50726;54.912;-8.392;2022-11-20T09:18:25;99405.34;;;27.95;46.12
64404;BME280;50726;54.912;-8.392;2022-11-20T09:20:51;99404.91;;;27.60;45.82
64404;BME280;50726;54.912;-8.392;2022-11-20T09:23:17;99419.22;;;26.46;48.88
64404;BME280;50726;54.912;-8.392;2022-11-20T09:25:43;99420.78;;;29.02;44.89
64404;BME280;50726;54.912;-8.392;2022-11-20T09:28:09;99416.19;;;27.39;45.59
64404;BME280;50726;54.912;-8.392;2022-11-20T09:30:35;99414.56;;;27.21;47.88
64404;BME280;50726;54.912;-8.392;2022-11-20T09:33:01;99422.19;;;24.44;53.82
64404;BME280;50726;54.912;-8.392;2022-11-20T09:35:26;99432.66;;;24.19;56.05
64404;BME280;50726;54.912;-8.392;2022-11-20T09:37:52;99455.94;;;25.07;54.76
64404;BME280;50726;54.912;-8.392;2022-11-20T09:40:23;99458.34;;;24.92;55.78
64404;BME280;50726;54.912;-8.392;2022-11-20T09:43:22;99458.34;;;24.92;56.08
64404;BME280;50726;54.912;-8.392;2022-11-20T09:46:13;99456.22;;;25.31;57.45
64404;BME280;50726;54.912;-8.392;2022-11-20T09:49:14;99461.88;;;25.97;56.78
64404;BME280;50726;54.912;-8.392;2022-11-20T09:52:04;99451.72;;;25.31;57.21
64404;BME280;50726;54.912;-8.392;2022-11-20T09:54:37;99468.38;;;24.54;58.02
64404;BME280;50726;54.912;-8.392;2022-11-20T09:57:10;99469.88;;;23.46;62.01
64404;BME280;50726;54.912;-8.392;2022-11-20T10:00:06;99461.22;;;23.62;61.72
64404;BME280;50726;54.912;-8.392;2022-11-20T10:02:55;99472.41;;;22.80;65.97
64404;BME280;50726;54.912;-8.392;2022-11-20T10:05:39;99464.38;;;23.00;66.59
64404;BME280;50726;54.912;-8.392;2022-11-20T10:08:25;99464.34;;;23.85;64.29
64404;BME280;50726;54.912;-8.392;2022-11-20T10:11:19;99471.44;;;24.23;62.45
64404;BME280;50726;54.912;-8.392;2022-11-20T10:13:52;99473.22;;;24.32;58.39
64404;BME280;50726;54.912;-8.392;2022-11-20T10:16:41;99478.44;;;26.18;54.63
64404;BME280;50726;54.912;-8.392;2022-11-20T10:25:13;99435.03;;;23.76;61.01
64404;BME280;50726;54.912;-8.392;2022-11-20T10:28:02;99460.22;;;25.27;57.63
64404;BME280;50726;54.912;-8.392;2022-11-20T10:30:38;99461.28;;;25.42;55.46
64404;BME280;50726;54.912;-8.392;2022-11-20T10:33:19;99479.25;;;25.24;57.23
64404;BME280;50726;54.912;-8.392;2022-11-20T10:36:26;99524.06;;;25.74;53.38
64404;BME280;50726;54.912;-8.392;2022-11-20T10:39:24;99502.44;;;24.52;58.14
64404;BME280;50726;54.912;-8.392;2022-11-20T10:41:59;99503.84;;;25.01;57.14
64404;BME280;50726;54.912;-8.392;2022-11-20T10:44:32;99497.34;;;23.09;64.70
64404;BME280;50726;54.912;-8.392;2022-11-20T10:47:21;99485.25;;;24.54;61.23
64404;BME280;50726;54.912;-8.392;2022-11-20T10:49:51;99472.25;;;23.49;63.96
64404;BME280;50726;54.912;-8.392;2022-11-20T10:52:39;99484.00;;;24.12;63.79
64404;BME280;50726;54.912;-8.392;2022-11-20T10:58:07;99478.28;;;23.79;67.41
64404;BME280;50726;54.912;-8.392;2022-11-20T11:00:35;99478.13;;;24.09;64.72
64404;BME280;50726;54.912;-8.392;2022-11-20T11:03:01;99484.91;;;23.75;66.30
64404;BME280;50726;54.912;-8.392;2022-11-20T11:05:38;99499.06;;;24.32;66.05
64404;BME280;50726;54.912;-8.392;2022-11-20T11:08:12;99453.56;;;22.91;69.46
64404;BME280;50726;54.912;-8.392;2022-11-20T11:10:57;99471.50;;;23.57;69.81
64404;BME280;50726;54.912;-8.392;2022-11-20T11:13:25;99509.06;;;25.98;61.58
64404;BME280;50726;54.912;-8.392;2022-11-20T11:15:52;99504.25;;;24.51;60.96
64404;BME280;50726;54.912;-8.392;2022-11-20T11:18:31;99505.22;;;26.94;55.16
64404;BME280;50726;54.912;-8.392;2022-11-20T11:21:03;99510.88;;;23.45;64.03
64404;BME280;50726;54.912;-8.392;2022-11-20T11:23:38;99514.78;;;25.34;58.03
64404;BME280;50726;54.912;-8.392;2022-11-20T11:26:18;99485.09;;;24.92;60.83
64404;BME280;50726;54.912;-8.392;2022-11-20T11:31:29;99528.84;;;26.06;57.66
64404;BME280;50726;54.912;-8.392;2022-11-20T11:36:34;99519.91;;;24.64;62.07
64404;BME280;50726;54.912;-8.392;2022-11-20T11:39:04;99522.81;;;23.79;60.86
64404;BME280;50726;54.912;-8.392;2022-11-20T11:41:35;99530.69;;;27.06;56.45
64404;BME280;50726;54.912;-8.392;2022-11-20T11:44:30;99527.56;;;24.96;57.38
64404;BME280;50726;54.912;-8.392;2022-11-20T11:47:29;99531.97;;;25.84;55.90
64404;BME280;50726;54.912;-8.392;2022-11-20T11:50:14;99521.44;;;26.51;52.70
64404;BME280;50726;54.912;-8.392;2022-11-20T11:53:13;99513.13;;;28.32;50.32
64404;BME280;50726;54.912;-8.392;2022-11-20T11:55:54;99517.94;;;27.17;51.39
64404;BME280;50726;54.912;-8.392;2022-11-20T12:06:28;99519.66;;;25.65;55.91
64404;BME280;50726;54.912;-8.392;2022-11-20T12:08:59;99520.53;;;25.47;57.79
64404;BME280;50726;54.912;-8.392;2022-11-20T12:16:36;99511.53;;;26.43;57.40
64404;BME280;50726;54.912;-8.392;2022-11-20T12:19:07;99508.06;;;25.56;58.98
64404;BME280;50726;54.912;-8.392;2022-11-20T12:25:31;99508.44;;;26.13;56.18
64404;BME280;50726;54.912;-8.392;2022-11-20T12:30:46;99521.59;;;24.29;61.30
64404;BME280;50726;54.912;-8.392;2022-11-20T12:33:39;99516.69;;;24.97;60.41
64404;BME280;50726;54.912;-8.392;2022-11-20T12:47:51;99512.81;;;23.91;58.45
64404;BME280;50726;54.912;-8.392;2022-11-20T13:06:50;99516.25;;;25.98;52.44
64404;BME280;50726;54.912;-8.392;2022-11-20T13:09:19;99509.09;;;25.64;51.90
64404;BME280;50726;54.912;-8.392;2022-11-20T13:14:44;99527.16;;;25.35;51.99
64404;BME280;50726;54.912;-8.392;2022-11-20T13:17:22;99534.56;;;26.11;50.14
64404;BME280;50726;54.912;-8.392;2022-11-20T13:19:53;99536.94;;;25.44;50.07
64404;BME280;50726;54.912;-8.392;2022-11-20T13:22:49;99529.56;;;25.46;48.62
64404;BME280;50726;54.912;-8.392;2022-11-20T13:25:37;99524.84;;;26.10;48.39
64404;BME280;50726;54.912;-8.392;2022-11-20T13:28:27;99531.84;;;24.88;50.31
64404;BME280;50726;54.912;-8.392;2022-11-20T13:30:56;99523.34;;;24.20;51.31
64404;BME280;50726;54.912;-8.392;2022-11-20T13:33:38;99517.09;;;25.55;47.54
64404;BME280;50726;54.912;-8.392;2022-11-20T13:36:07;99523.88;;;25.50;49.05
64404;BME280;50726;54.912;-8.392;2022-11-20T13:38:51;99515.47;;;24.19;50.20
64404;BME280;50726;54.912;-8.392;2022-11-20T13:41:33;99561.63;;;22.96;59.70
64404;BME280;50726;54.912;-8.392;2022-11-20T13:44:14;99554.91;;;22.62;89.54
64404;BME280;50726;54.912;-8.392;2022-11-20T13:46:45;99545.84;;;24.18;71.19
64404;BME280;50726;54.912;-8.392;2022-11-20T13:49:38;99537.75;;;26.06;64.66
64404;BME280;50726;54.912;-8.392;2022-11-20T13:52:41;99545.06;;;26.72;60.23
64404;BME280;50726;54.912;-8.392;2022-11-20T14:00:33;99527.78;;;24.48;56.80
64404;BME280;50726;54.912;-8.392;2022-11-20T14:03:21;99540.84;;;23.77;57.51
64404;BME280;50726;54.912;-8.392;2022-11-20T14:05:54;99552.91;;;25.36;55.60
64404;BME280;50726;54.912;-8.392;2022-11-20T14:08:38;99550.41;;;24.53;53.67
64404;BME280;50726;54.912;-8.392;2022-11-20T14:11:17;99564.63;;;25.53;52.22
64404;BME280;50726;54.912;-8.392;2022-11-20T14:16:21;99558.44;;;24.90;53.12
64404;BME280;50726;54.912;-8.392;2022-11-20T14:18:47;99560.19;;;24.81;55.55
64404;BME280;50726;54.912;-8.392;2022-11-20T14:21:27;99549.34;;;26.23;54.34
64404;BME280;50726;54.912;-8.392;2022-11-20T14:24:10;99547.63;;;25.44;57.71
64404;BME280;50726;54.912;-8.392;2022-11-20T14:26:44;99537.84;;;23.80;58.85